sensor_id;sensor_type;location;lat;lon;timestamp;pressure;altitude;pressure_sealevel;temperature;humidity
20019;BME280;10170;42.502;26.526;2023-01-27T00:00:35;98988.72;;;7.36;100.00
20019;BME280;10170;42.502;26.526;2023-01-27T00:03:02;98977.75;;;7.46;100.00
20019;BME280;10170;42.502;26.526;2023-01-27T00:05:28;98979.19;;;7.42;100.00
20019;BME280;10170;42.502;26.526;2023-01-27T00:07:55;98967.56;;;7.43;100.00
20019;BME280;10170;42.502;26.526;2023-01-27T00:10:25;98970.41;;;7.48;100.00
20019;BME280;10170;42.502;26.526;2023-01-27T00:12:52;98930.56;;;7.36;100.00
20019;BME280;10170;42.502;26.526;2023-01-27T00:15:37;98975.72;;;7.48;100.00
20019;BME280;10170;42.502;26.526;2023-01-27T00:18:04;98983.84;;;7.40;100.00
20019;BME280;10170;42.502;26.526;2023-01-27T00:20:32;98975.72;;;7.48;100.00
20019;BME280;10170;42.502;26.526;2023-01-27T00:23:19;98964.31;;;7.41;100.00
20019;BME280;10170;42.502;26.526;2023-01-27T00:26:09;98957.41;;;7.46;100.00
20019;BME280;10170;42.502;26.526;2023-01-27T00:28:37;98965.53;;;7.52;100.00
20019;BME280;10170;42.502;26.526;2023-01-27T00:31:05;98960.25;;;7.52;100.00
20019;BME280;10170;42.502;26.526;2023-01-27T00:33:35;98972.25;;;7.47;100.00
20019;BME280;10170;42.502;26.526;2023-01-27T00:36:05;98951.91;;;7.41;100.00
20019;BME280;10170;42.502;26.526;2023-01-27T00:38:34;98943.78;;;7.43;100.00
20019;BME280;10170;42.502;26.526;2023-01-27T00:41:06;98925.25;;;7.30;100.00
20019;BME280;10170;42.502;26.526;2023-01-27T00:43:46;98952.31;;;7.45;100.00
20019;BME280;10170;42.502;26.526;2023-01-27T00:46:14;98956.78;;;7.51;100.00
20019;BME280;10170;42.502;26.526;2023-01-27T00:48:41;98949.06;;;7.49;100.00
20019;BME280;10170;42.502;26.526;2023-01-27T00:51:08;98945.19;;;7.52;100.00
20019;BME280;10170;42.502;26.526;2023-01-27T00:53:36;98957.41;;;7.53;100.00
20019;BME280;10170;42.502;26.526;2023-01-27T00:56:03;98959.44;;;7.51;100.00
20019;BME280;10170;42.502;26.526;2023-01-27T00:58:30;98968.81;;;7.54;100.00
20019;BME280;10170;42.502;26.526;2023-01-27T01:00:59;98969.41;;;7.56;100.00
20019;BME280;10170;42.502;26.526;2023-01-27T01:03:27;98964.34;;;7.54;100.00
20019;BME280;10170;42.502;26.526;2023-01-27T01:06:01;98968.22;;;7.58;100.00
20019;BME280;10170;42.502;26.526;2023-01-27T01:08:32;98951.31;;;7.59;100.00
20019;BME280;10170;42.502;26.526;2023-01-27T01:10:59;98947.03;;;7.58;100.00
20019;BME280;10170;42.502;26.526;2023-01-27T01:13:27;98932.38;;;7.56;100.00
20019;BME280;10170;42.502;26.526;2023-01-27T01:15:54;98921.59;;;7.51;100.00
20019;BME280;10170;42.502;26.526;2023-01-27T01:18:21;98925.06;;;7.58;100.00
20019;BME280;10170;42.502;26.526;2023-01-27T01:20:48;98909.81;;;7.40;100.00
20019;BME280;10170;42.502;26.526;2023-01-27T01:23:15;98921.38;;;7.59;100.00
20019;BME280;10170;42.502;26.526;2023-01-27T01:25:42;98914.47;;;7.51;100.00
20019;BME280;10170;42.502;26.526;2023-01-27T01:28:11;98923.00;;;7.53;100.00
20019;BME280;10170;42.502;26.526;2023-01-27T01:30:37;98931.97;;;7.59;100.00
20019;BME280;10170;42.502;26.526;2023-01-27T01:33:04;98945.59;;;7.62;100.00
20019;BME280;10170;42.502;26.526;2023-01-27T01:35:35;98950.69;;;7.64;100.00
20019;BME280;10170;42.502;26.526;2023-01-27T01:38:02;98946.41;;;7.69;100.00
20019;BME280;10170;42.502;26.526;2023-01-27T01:40:29;98936.66;;;7.63;100.00
20019;BME280;10170;42.502;26.526;2023-01-27T01:42:58;98921.41;;;7.65;100.00
20019;BME280;10170;42.502;26.526;2023-01-27T01:48:00;98908.78;;;7.61;100.00
20019;BME280;10170;42.502;26.526;2023-01-27T01:50:30;98891.06;;;7.61;100.00
20019;BME280;10170;42.502;26.526;2023-01-27T01:53:00;98880.69;;;7.66;100.00
20019;BME280;10170;42.502;26.526;2023-01-27T01:55:29;98873.97;;;7.64;100.00
20019;BME280;10170;42.502;26.526;2023-01-27T01:57:57;98910.59;;;7.67;100.00
20019;BME280;10170;42.502;26.526;2023-01-27T02:00:24;98900.03;;;7.67;100.00
20019;BME280;10170;42.502;26.526;2023-01-27T02:02:51;98901.25;;;7.64;100.00
20019;BME280;10170;42.502;26.526;2023-01-27T02:05:25;98905.91;;;7.62;100.00
20019;BME280;10170;42.502;26.526;2023-01-27T02:08:12;98896.97;;;7.63;100.00
20019;BME280;10170;42.502;26.526;2023-01-27T02:10:40;98894.34;;;7.63;100.00
20019;BME280;10170;42.502;26.526;2023-01-27T02:13:08;98876.59;;;7.64;100.00
20019;BME280;10170;42.502;26.526;2023-01-27T02:15:35;98877.22;;;7.66;100.00
20019;BME280;10170;42.502;26.526;2023-01-27T02:18:02;98855.88;;;7.67;100.00
20019;BME280;10170;42.502;26.526;2023-01-27T02:20:42;98868.66;;;7.77;100.00
20019;BME280;10170;42.502;26.526;2023-01-27T02:25:59;98907.53;;;7.76;100.00
20019;BME280;10170;42.502;26.526;2023-01-27T02:28:29;98904.25;;;7.87;100.00
20019;BME280;10170;42.502;26.526;2023-01-27T02:30:56;98901.22;;;7.84;100.00
20019;BME280;10170;42.502;26.526;2023-01-27T02:33:24;98876.19;;;7.86;100.00
20019;BME280;10170;42.502;26.526;2023-01-27T02:38:32;98851.13;;;7.82;100.00
20019;BME280;10170;42.502;26.526;2023-01-27T02:41:06;98853.19;;;7.87;100.00
20019;BME280;10170;42.502;26.526;2023-01-27T02:43:34;98852.97;;;7.82;100.00
20019;BME280;10170;42.502;26.526;2023-01-27T02:46:01;98872.31;;;7.82;100.00
20019;BME280;10170;42.502;26.526;2023-01-27T02:48:28;98851.75;;;7.84;100.00
20019;BME280;10170;42.502;26.526;2023-01-27T02:50:55;98846.47;;;7.84;100.00
20019;BME280;10170;42.502;26.526;2023-01-27T02:53:21;98842.00;;;7.85;100.00
20019;BME280;10170;42.502;26.526;2023-01-27T02:55:48;98847.47;;;7.90;100.00
20019;BME280;10170;42.502;26.526;2023-01-27T02:58:15;98850.09;;;7.90;100.00
20019;BME280;10170;42.502;26.526;2023-01-27T03:00:42;98846.03;;;7.87;100.00
20019;BME280;10170;42.502;26.526;2023-01-27T03:03:09;98839.09;;;7.93;100.00
20019;BME280;10170;42.502;26.526;2023-01-27T03:05:36;98853.53;;;7.97;100.00
20019;BME280;10170;42.502;26.526;2023-01-27T03:08:03;98840.53;;;7.95;100.00
20019;BME280;10170;42.502;26.526;2023-01-27T03:10:29;98849.69;;;7.99;100.00
20019;BME280;10170;42.502;26.526;2023-01-27T03:12:56;98837.28;;;7.93;100.00
20019;BME280;10170;42.502;26.526;2023-01-27T03:15:23;98824.06;;;7.87;100.00
20019;BME280;10170;42.502;26.526;2023-01-27T03:18:10;98826.28;;;7.90;100.00
20019;BME280;10170;42.502;26.526;2023-01-27T03:21:01;98810.81;;;7.93;100.00
20019;BME280;10170;42.502;26.526;2023-01-27T03:23:28;98804.28;;;7.96;100.00
20019;BME280;10170;42.502;26.526;2023-01-27T03:25:54;98796.34;;;7.96;100.00
20019;BME280;10170;42.502;26.526;2023-01-27T03:28:21;98811.19;;;7.97;100.00
20019;BME280;10170;42.502;26.526;2023-01-27T03:30:48;98806.50;;;7.99;100.00
20019;BME280;10170;42.502;26.526;2023-01-27T03:33:15;98806.56;;;7.86;100.00
20019;BME280;10170;42.502;26.526;2023-01-27T03:35:41;98812.81;;;8.04;100.00
20019;BME280;10170;42.502;26.526;2023-01-27T03:38:15;98824.59;;;8.02;100.00
20019;BME280;10170;42.502;26.526;2023-01-27T03:41:03;98814.19;;;8.13;100.00
20019;BME280;10170;42.502;26.526;2023-01-27T03:43:48;98826.03;;;8.04;100.00
20019;BME280;10170;42.502;26.526;2023-01-27T03:46:34;98824.56;;;8.15;100.00
20019;BME280;10170;42.502;26.526;2023-01-27T03:49:00;98826.84;;;8.05;100.00
20019;BME280;10170;42.502;26.526;2023-01-27T03:51:27;98828.47;;;8.06;100.00
20019;BME280;10170;42.502;26.526;2023-01-27T03:53:54;98819.47;;;8.13;100.00
20019;BME280;10170;42.502;26.526;2023-01-27T03:56:21;98811.31;;;8.28;100.00
20019;BME280;10170;42.502;26.526;2023-01-27T03:58:48;98787.44;;;8.21;100.00
20019;BME280;10170;42.502;26.526;2023-01-27T04:01:18;98788.50;;;8.20;100.00
20019;BME280;10170;42.502;26.526;2023-01-27T04:03:47;98806.25;;;8.13;100.00
20019;BME280;10170;42.502;26.526;2023-01-27T04:06:35;98794.19;;;8.17;100.00
20019;BME280;10170;42.502;26.526;2023-01-27T04:09:27;98802.56;;;8.14;100.00
20019;BME280;10170;42.502;26.526;2023-01-27T04:11:55;98806.03;;;8.15;100.00
20019;BME280;10170;42.502;26.526;2023-01-27T04:17:05;98812.31;;;8.20;100.00
20019;BME280;10170;42.502;26.526;2023-01-27T04:19:32;98808.50;;;8.10;100.00
20019;BME280;10170;42.502;26.526;2023-01-27T04:22:00;98796.25;;;8.15;100.00
20019;BME280;10170;42.502;26.526;2023-01-27T04:24:27;98783.22;;;8.14;100.00
20019;BME280;10170;42.502;26.526;2023-01-27T04:26:56;98774.47;;;8.13;100.00
20019;BME280;10170;42.502;26.526;2023-01-27T04:29:26;98783.63;;;8.24;100.00
20019;BME280;10170;42.502;26.526;2023-01-27T04:31:54;98788.25;;;8.28;100.00
20019;BME280;10170;42.502;26.526;2023-01-27T04:34:21;98788.72;;;8.19;100.00
20019;BME280;10170;42.502;26.526;2023-01-27T04:36:48;98788.72;;;8.12;100.00
20019;BME280;10170;42.502;26.526;2023-01-27T04:39:15;98780.38;;;8.15;100.00
20019;BME280;10170;42.502;26.526;2023-01-27T04:41:43;98785.28;;;8.12;100.00
20019;BME280;10170;42.502;26.526;2023-01-27T04:44:11;98786.47;;;8.16;100.00
20019;BME280;10170;42.502;26.526;2023-01-27T04:46:39;98781.94;;;8.23;100.00
20019;BME280;10170;42.502;26.526;2023-01-27T04:49:06;98765.94;;;8.11;100.00
20019;BME280;10170;42.502;26.526;2023-01-27T04:51:34;98768.31;;;8.19;100.00
20019;BME280;10170;42.502;26.526;2023-01-27T04:54:00;98761.06;;;8.08;100.00
20019;BME280;10170;42.502;26.526;2023-01-27T04:56:35;98761.84;;;8.09;100.00
20019;BME280;10170;42.502;26.526;2023-01-27T04:59:04;98759.22;;;8.09;100.00
20019;BME280;10170;42.502;26.526;2023-01-27T05:01:31;98775.09;;;8.15;100.00
20019;BME280;10170;42.502;26.526;2023-01-27T05:03:58;98783.81;;;8.16;100.00
20019;BME280;10170;42.502;26.526;2023-01-27T05:06:25;98778.91;;;8.19;100.00
20019;BME280;10170;42.502;26.526;2023-01-27T05:08:52;98783.47;;;8.06;100.00
20019;BME280;10170;42.502;26.526;2023-01-27T05:11:19;98765.38;;;7.96;100.00
20019;BME280;10170;42.502;26.526;2023-01-27T05:13:47;98740.81;;;7.83;100.00
20019;BME280;10170;42.502;26.526;2023-01-27T05:16:19;98767.81;;;8.04;100.00
20019;BME280;10170;42.502;26.526;2023-01-27T05:18:48;98769.41;;;8.05;100.00
20019;BME280;10170;42.502;26.526;2023-01-27T05:21:17;98770.41;;;8.11;100.00
20019;BME280;10170;42.502;26.526;2023-01-27T05:23:44;98779.63;;;8.02;100.00
20019;BME280;10170;42.502;26.526;2023-01-27T05:26:17;98760.25;;;8.08;100.00
20019;BME280;10170;42.502;26.526;2023-01-27T05:28:45;98755.56;;;8.03;100.00
20019;BME280;10170;42.502;26.526;2023-01-27T05:33:41;98767.59;;;8.06;100.00
20019;BME280;10170;42.502;26.526;2023-01-27T05:36:10;98765.97;;;8.05;100.00
20019;BME280;10170;42.502;26.526;2023-01-27T05:38:37;98760.47;;;8.06;100.00
20019;BME280;10170;42.502;26.526;2023-01-27T05:41:05;98765.38;;;8.03;100.00
20019;BME280;10170;42.502;26.526;2023-01-27T05:43:34;98762.50;;;8.04;100.00
20019;BME280;10170;42.502;26.526;2023-01-27T05:46:02;98774.25;;;8.15;100.00
20019;BME280;10170;42.502;26.526;2023-01-27T05:48:30;98778.94;;;8.13;100.00
20019;BME280;10170;42.502;26.526;2023-01-27T05:50:57;98758.59;;;8.13;100.00
20019;BME280;10170;42.502;26.526;2023-01-27T05:53:25;98756.56;;;8.15;100.00
20019;BME280;10170;42.502;26.526;2023-01-27T05:55:52;98753.63;;;8.23;100.00
20019;BME280;10170;42.502;26.526;2023-01-27T05:58:19;98752.03;;;8.16;100.00
20019;BME280;10170;42.502;26.526;2023-01-27T06:00:47;98737.16;;;8.21;100.00
20019;BME280;10170;42.502;26.526;2023-01-27T06:03:14;98741.25;;;8.24;100.00
20019;BME280;10170;42.502;26.526;2023-01-27T06:05:56;98731.63;;;8.23;100.00
20019;BME280;10170;42.502;26.526;2023-01-27T06:08:24;98721.25;;;8.21;100.00
20019;BME280;10170;42.502;26.526;2023-01-27T06:10:52;98741.25;;;8.24;100.00
20019;BME280;10170;42.502;26.526;2023-01-27T06:13:22;98726.56;;;8.21;100.00
20019;BME280;10170;42.502;26.526;2023-01-27T06:15:49;98723.34;;;8.13;100.00
20019;BME280;10170;42.502;26.526;2023-01-27T06:18:18;98720.94;;;8.11;100.00
20019;BME280;10170;42.502;26.526;2023-01-27T06:20:45;98727.63;;;8.14;100.00
20019;BME280;10170;42.502;26.526;2023-01-27T06:23:13;98726.06;;;8.06;100.00
20019;BME280;10170;42.502;26.526;2023-01-27T06:25:45;98731.47;;;8.24;100.00
20019;BME280;10170;42.502;26.526;2023-01-27T06:28:13;98737.63;;;8.12;100.00
20019;BME280;10170;42.502;26.526;2023-01-27T06:30:54;98732.97;;;8.07;100.00
20019;BME280;10170;42.502;26.526;2023-01-27T06:33:20;98751.66;;;8.12;100.00
20019;BME280;10170;42.502;26.526;2023-01-27T06:35:47;98756.13;;;8.18;100.00
20019;BME280;10170;42.502;26.526;2023-01-27T06:38:14;98759.59;;;8.12;100.00
20019;BME280;10170;42.502;26.526;2023-01-27T06:40:41;98757.97;;;8.24;100.00
20019;BME280;10170;42.502;26.526;2023-01-27T06:43:13;98756.69;;;8.27;100.00
20019;BME280;10170;42.502;26.526;2023-01-27T06:45:40;98775.78;;;8.35;100.00
20019;BME280;10170;42.502;26.526;2023-01-27T06:48:07;98783.97;;;8.34;100.00
20019;BME280;10170;42.502;26.526;2023-01-27T06:50:34;98792.28;;;8.37;100.00
20019;BME280;10170;42.502;26.526;2023-01-27T06:53:05;98796.56;;;8.38;100.00
20019;BME280;10170;42.502;26.526;2023-01-27T06:55:33;98795.75;;;8.38;100.00
20019;BME280;10170;42.502;26.526;2023-01-27T06:58:01;98796.56;;;8.38;100.00
20019;BME280;10170;42.502;26.526;2023-01-27T07:00:28;98786.59;;;8.40;100.00
20019;BME280;10170;42.502;26.526;2023-01-27T07:02:56;98783.34;;;8.38;100.00
20019;BME280;10170;42.502;26.526;2023-01-27T07:05:23;98783.75;;;8.35;100.00
20019;BME280;10170;42.502;26.526;2023-01-27T07:07:50;98773.91;;;8.42;100.00
20019;BME280;10170;42.502;26.526;2023-01-27T07:10:17;98776.97;;;8.46;100.00
20019;BME280;10170;42.502;26.526;2023-01-27T07:12:44;98781.09;;;8.35;100.00
20019;BME280;10170;42.502;26.526;2023-01-27T07:15:11;98783.94;;;8.40;100.00
20019;BME280;10170;42.502;26.526;2023-01-27T07:17:39;98778.22;;;8.43;100.00
20019;BME280;10170;42.502;26.526;2023-01-27T07:20:08;98792.59;;;8.54;100.00
20019;BME280;10170;42.502;26.526;2023-01-27T07:22:35;98766.38;;;8.46;100.00
20019;BME280;10170;42.502;26.526;2023-01-27T07:25:03;98770.19;;;8.50;100.00
20019;BME280;10170;42.502;26.526;2023-01-27T07:27:30;98778.31;;;8.55;100.00
20019;BME280;10170;42.502;26.526;2023-01-27T07:29:57;98775.09;;;8.53;100.00
20019;BME280;10170;42.502;26.526;2023-01-27T07:32:24;98761.63;;;8.55;100.00
20019;BME280;10170;42.502;26.526;2023-01-27T07:34:53;98762.00;;;8.58;100.00
20019;BME280;10170;42.502;26.526;2023-01-27T07:37:20;98751.41;;;8.58;100.00
20019;BME280;10170;42.502;26.526;2023-01-27T07:39:47;98742.19;;;8.67;100.00
20019;BME280;10170;42.502;26.526;2023-01-27T07:42:14;98741.50;;;8.72;100.00
20019;BME280;10170;42.502;26.526;2023-01-27T07:44:40;98751.47;;;8.76;100.00
20019;BME280;10170;42.502;26.526;2023-01-27T07:47:07;98751.16;;;8.91;100.00
20019;BME280;10170;42.502;26.526;2023-01-27T07:49:34;98732.56;;;8.73;100.00
20019;BME280;10170;42.502;26.526;2023-01-27T07:52:00;98737.47;;;8.94;100.00
20019;BME280;10170;42.502;26.526;2023-01-27T07:54:27;98725.25;;;8.68;100.00
20019;BME280;10170;42.502;26.526;2023-01-27T07:56:54;98729.72;;;8.68;100.00
20019;BME280;10170;42.502;26.526;2023-01-27T07:59:21;98734.59;;;8.71;100.00
20019;BME280;10170;42.502;26.526;2023-01-27T08:01:48;98739.84;;;8.77;100.00
20019;BME280;10170;42.502;26.526;2023-01-27T08:04:14;98735.47;;;8.65;100.00
20019;BME280;10170;42.502;26.526;2023-01-27T08:06:41;98737.78;;;8.79;100.00
20019;BME280;10170;42.502;26.526;2023-01-27T08:09:08;98739.91;;;8.71;100.00
20019;BME280;10170;42.502;26.526;2023-01-27T08:11:35;98724.22;;;8.69;100.00
20019;BME280;10170;42.502;26.526;2023-01-27T08:14:02;98710.31;;;8.74;100.00
20019;BME280;10170;42.502;26.526;2023-01-27T08:16:28;98718.78;;;8.82;100.00
20019;BME280;10170;42.502;26.526;2023-01-27T08:18:55;98696.84;;;9.00;100.00
20019;BME280;10170;42.502;26.526;2023-01-27T08:21:22;98692.50;;;8.81;100.00
20019;BME280;10170;42.502;26.526;2023-01-27T08:23:53;98696.59;;;8.83;100.00
20019;BME280;10170;42.502;26.526;2023-01-27T08:26:19;98695.16;;;8.81;100.00
20019;BME280;10170;42.502;26.526;2023-01-27T08:28:46;98695.75;;;8.83;100.00
20019;BME280;10170;42.502;26.526;2023-01-27T08:31:14;98692.63;;;8.68;100.00
20019;BME280;10170;42.502;26.526;2023-01-27T08:33:43;98692.47;;;8.63;100.00
20019;BME280;10170;42.502;26.526;2023-01-27T08:36:14;98710.59;;;8.66;100.00
20019;BME280;10170;42.502;26.526;2023-01-27T08:38:42;98719.69;;;8.76;100.00
20019;BME280;10170;42.502;26.526;2023-01-27T08:41:12;98720.75;;;8.69;100.00
20019;BME280;10170;42.502;26.526;2023-01-27T08:43:39;98714.78;;;8.73;100.00
20019;BME280;10170;42.502;26.526;2023-01-27T08:46:07;98724.41;;;8.68;100.00
20019;BME280;10170;42.502;26.526;2023-01-27T08:48:35;98714.63;;;8.68;100.00
20019;BME280;10170;42.502;26.526;2023-01-27T08:51:04;98717.44;;;8.73;100.00
20019;BME280;10170;42.502;26.526;2023-01-27T08:53:34;98723.88;;;8.84;100.00
20019;BME280;10170;42.502;26.526;2023-01-27T08:56:09;98718.75;;;8.89;100.00
20019;BME280;10170;42.502;26.526;2023-01-27T08:58:36;98707.56;;;8.87;100.00
20019;BME280;10170;42.502;26.526;2023-01-27T09:01:04;98709.59;;;8.85;100.00
20019;BME280;10170;42.502;26.526;2023-01-27T09:03:32;98697.34;;;8.90;100.00
20019;BME280;10170;42.502;26.526;2023-01-27T09:06:00;98696.28;;;8.91;100.00
20019;BME280;10170;42.502;26.526;2023-01-27T09:08:27;98682.28;;;8.84;100.00
20019;BME280;10170;42.502;26.526;2023-01-27T09:10:54;98679.16;;;8.94;100.00
20019;BME280;10170;42.502;26.526;2023-01-27T09:13:21;98679.78;;;8.89;100.00
20019;BME280;10170;42.502;26.526;2023-01-27T09:15:50;98670.34;;;9.00;100.00
20019;BME280;10170;42.502;26.526;2023-01-27T09:18:18;98673.28;;;9.10;100.00
20019;BME280;10170;42.502;26.526;2023-01-27T09:20:44;98672.31;;;9.04;100.00
20019;BME280;10170;42.502;26.526;2023-01-27T09:23:11;98670.75;;;8.97;100.00
20019;BME280;10170;42.502;26.526;2023-01-27T09:25:38;98675.56;;;9.06;100.00
20019;BME280;10170;42.502;26.526;2023-01-27T09:28:05;98669.50;;;8.99;100.00
20019;BME280;10170;42.502;26.526;2023-01-27T09:30:32;98678.34;;;9.11;100.00
20019;BME280;10170;42.502;26.526;2023-01-27T09:32:59;98673.13;;;9.05;100.00
20019;BME280;10170;42.502;26.526;2023-01-27T09:35:38;98674.16;;;9.22;100.00
20019;BME280;10170;42.502;26.526;2023-01-27T09:38:07;98671.94;;;9.19;100.00
20019;BME280;10170;42.502;26.526;2023-01-27T09:46:37;98655.81;;;9.20;100.00
20019;BME280;10170;42.502;26.526;2023-01-27T09:52:22;98647.94;;;9.14;100.00
20019;BME280;10170;42.502;26.526;2023-01-27T09:55:20;98636.88;;;9.17;100.00
20019;BME280;10170;42.502;26.526;2023-01-27T09:58:16;98637.75;;;9.11;100.00
20019;BME280;10170;42.502;26.526;2023-01-27T10:01:14;98633.50;;;9.10;100.00
20019;BME280;10170;42.502;26.526;2023-01-27T10:04:00;98625.59;;;9.21;100.00
20019;BME280;10170;42.502;26.526;2023-01-27T10:06:48;98616.53;;;9.29;100.00
20019;BME280;10170;42.502;26.526;2023-01-27T10:26:22;98578.00;;;9.44;100.00
20019;BME280;10170;42.502;26.526;2023-01-27T10:28:56;98575.38;;;9.56;100.00
20019;BME280;10170;42.502;26.526;2023-01-27T10:31:27;98571.25;;;9.60;100.00
20019;BME280;10170;42.502;26.526;2023-01-27T10:34:00;98567.28;;;9.51;100.00
20019;BME280;10170;42.502;26.526;2023-01-27T10:39:11;98552.31;;;9.68;100.00
20019;BME280;10170;42.502;26.526;2023-01-27T10:47:22;98548.31;;;9.77;100.00
20019;BME280;10170;42.502;26.526;2023-01-27T10:49:53;98546.81;;;9.81;100.00
20019;BME280;10170;42.502;26.526;2023-01-27T10:52:26;98542.34;;;9.93;100.00
20019;BME280;10170;42.502;26.526;2023-01-27T10:55:14;98503.53;;;9.81;100.00
20019;BME280;10170;42.502;26.526;2023-01-27T10:57:56;98538.59;;;10.12;100.00
20019;BME280;10170;42.502;26.526;2023-01-27T11:00:33;98541.38;;;10.17;100.00
20019;BME280;10170;42.502;26.526;2023-01-27T11:03:30;98535.59;;;10.20;100.00
20019;BME280;10170;42.502;26.526;2023-01-27T11:06:02;98534.91;;;10.36;100.00
20019;BME280;10170;42.502;26.526;2023-01-27T11:08:36;98539.53;;;10.41;100.00
20019;BME280;10170;42.502;26.526;2023-01-27T11:11:05;98526.94;;;10.25;100.00
20019;BME280;10170;42.502;26.526;2023-01-27T11:14:09;98528.78;;;10.13;100.00
20019;BME280;10170;42.502;26.526;2023-01-27T11:16:39;98526.50;;;10.16;100.00
20019;BME280;10170;42.502;26.526;2023-01-27T11:21:57;98532.09;;;10.08;100.00
20019;BME280;10170;42.502;26.526;2023-01-27T11:24:42;98526.59;;;10.33;100.00
20019;BME280;10170;42.502;26.526;2023-01-27T11:27:31;98538.94;;;10.16;100.00
20019;BME280;10170;42.502;26.526;2023-01-27T11:30:10;98541.38;;;10.29;100.00
20019;BME280;10170;42.502;26.526;2023-01-27T11:32:56;98540.56;;;10.17;100.00
20019;BME280;10170;42.502;26.526;2023-01-27T11:35:25;98535.53;;;9.97;100.00
20019;BME280;10170;42.502;26.526;2023-01-27T11:37:52;98534.84;;;9.49;100.00
20019;BME280;10170;42.502;26.526;2023-01-27T11:40:34;98536.53;;;9.32;100.00
20019;BME280;10170;42.502;26.526;2023-01-27T11:43:02;98528.38;;;9.15;100.00
20019;BME280;10170;42.502;26.526;2023-01-27T11:45:33;98537.00;;;9.11;100.00
20019;BME280;10170;42.502;26.526;2023-01-27T11:48:02;98533.81;;;9.20;100.00
20019;BME280;10170;42.502;26.526;2023-01-27T11:50:35;98522.28;;;9.15;100.00
20019;BME280;10170;42.502;26.526;2023-01-27T11:55:50;98525.94;;;9.32;100.00
20019;BME280;10170;42.502;26.526;2023-01-27T11:58:22;98528.09;;;9.05;100.00
20019;BME280;10170;42.502;26.526;2023-01-27T12:00:55;98527.56;;;9.15;100.00
20019;BME280;10170;42.502;26.526;2023-01-27T12:06:04;98526.28;;;8.88;100.00
20019;BME280;10170;42.502;26.526;2023-01-27T12:08:45;98532.16;;;8.90;100.00
20019;BME280;10170;42.502;26.526;2023-01-27T12:11:33;98532.75;;;8.92;100.00
20019;BME280;10170;42.502;26.526;2023-01-27T12:14:01;98531.00;;;8.86;100.00
20019;BME280;10170;42.502;26.526;2023-01-27T12:16:44;98533.81;;;8.73;100.00
20019;BME280;10170;42.502;26.526;2023-01-27T12:19:39;98536.28;;;8.68;100.00
20019;BME280;10170;42.502;26.526;2023-01-27T12:22:16;98530.47;;;8.41;100.00
20019;BME280;10170;42.502;26.526;2023-01-27T12:24:48;98539.56;;;8.27;100.00
20019;BME280;10170;42.502;26.526;2023-01-27T12:27:51;98534.53;;;8.19;100.00
20019;BME280;10170;42.502;26.526;2023-01-27T12:30:22;98548.72;;;8.00;100.00
20019;BME280;10170;42.502;26.526;2023-01-27T12:32:50;98538.91;;;7.82;100.00
20019;BME280;10170;42.502;26.526;2023-01-27T12:35:21;98543.28;;;7.70;100.00
20019;BME280;10170;42.502;26.526;2023-01-27T12:37:48;98542.69;;;7.68;100.00
20019;BME280;10170;42.502;26.526;2023-01-27T12:40:22;98551.91;;;7.59;100.00
20019;BME280;10170;42.502;26.526;2023-01-27T12:45:29;98547.88;;;7.50;100.00
20019;BME280;10170;42.502;26.526;2023-01-27T12:50:41;98558.75;;;7.35;100.00
20019;BME280;10170;42.502;26.526;2023-01-27T12:53:25;98557.13;;;7.34;100.00
20019;BME280;10170;42.502;26.526;2023-01-27T12:56:15;98551.41;;;7.37;100.00
20019;BME280;10170;42.502;26.526;2023-01-27T13:01:23;98552.84;;;7.40;100.00
20019;BME280;10170;42.502;26.526;2023-01-27T13:04:18;98548.47;;;7.52;100.00
20019;BME280;10170;42.502;26.526;2023-01-27T13:11:54;98547.63;;;7.58;100.00
20019;BME280;10170;42.502;26.526;2023-01-27T13:14:22;98554.41;;;7.47;100.00
20019;BME280;10170;42.502;26.526;2023-01-27T13:16:54;98559.69;;;7.47;100.00
20019;BME280;10170;42.502;26.526;2023-01-27T13:19:31;98545.69;;;7.40;100.00
20019;BME280;10170;42.502;26.526;2023-01-27T13:22:01;98551.13;;;7.52;100.00
20019;BME280;10170;42.502;26.526;2023-01-27T13:24:38;98562.91;;;7.56;100.00
20019;BME280;10170;42.502;26.526;2023-01-27T13:27:14;98565.56;;;7.56;100.00
20019;BME280;10170;42.502;26.526;2023-01-27T13:29:54;98568.69;;;7.40;100.00
20019;BME280;10170;42.502;26.526;2023-01-27T13:32:26;98572.34;;;7.39;100.00
20019;BME280;10170;42.502;26.526;2023-01-27T13:35:04;98575.47;;;7.29;100.00
20019;BME280;10170;42.502;26.526;2023-01-27T13:40:22;98565.69;;;7.30;100.00
20019;BME280;10170;42.502;26.526;2023-01-27T13:45:43;98574.19;;;7.38;100.00
20019;BME280;10170;42.502;26.526;2023-01-27T13:48:26;98571.72;;;7.43;100.00
20019;BME280;10170;42.502;26.526;2023-01-27T13:51:13;98573.28;;;7.20;100.00
20019;BME280;10170;42.502;26.526;2023-01-27T13:53:42;98579.28;;;7.33;100.00
20019;BME280;10170;42.502;26.526;2023-01-27T14:06:42;98589.88;;;7.33;100.00
20019;BME280;10170;42.502;26.526;2023-01-27T14:09:42;98580.78;;;7.23;100.00
20019;BME280;10170;42.502;26.526;2023-01-27T14:17:45;98585.84;;;7.31;100.00
20019;BME280;10170;42.502;26.526;2023-01-27T14:20:28;98583.34;;;7.36;100.00
20019;BME280;10170;42.502;26.526;2023-01-27T14:28:50;98586.78;;;7.43;100.00
20019;BME280;10170;42.502;26.526;2023-01-27T14:31:22;98591.22;;;7.49;100.00
20019;BME280;10170;42.502;26.526;2023-01-27T14:37:13;98593.75;;;7.31;100.00
20019;BME280;10170;42.502;26.526;2023-01-27T14:39:47;98587.47;;;7.25;100.00
20019;BME280;10170;42.502;26.526;2023-01-27T14:50:51;98605.22;;;7.18;100.00
20019;BME280;10170;42.502;26.526;2023-01-27T14:54:10;98603.63;;;7.04;100.00
20019;BME280;10170;42.502;26.526;2023-01-27T14:59:43;98614.91;;;7.31;100.00
20019;BME280;10170;42.502;26.526;2023-01-27T15:07:45;98615.09;;;6.72;100.00